Time;durP1;ratioP1;P1;durP2;ratioP2;P2;SDS_P1;SDS_P2;PMS_P1;PMS_P2;Temp;Humidity;BMP_temperature;BMP_pressure;BME280_temperature;BME280_humidity;BME280_pressure;Samples;Min_cycle;Max_cycle;Signal;HPM_P1;HPM_P2
2023/08/10 00:00:28;;;;;;;14.10;2.45;;;14.00;99.90;;;13.02;96.94;101361.41;4910578;28;20062;-82
2023/08/10 00:02:55;;;;;;;11.73;1.85;;;14.10;99.90;;;12.98;97.09;101359.84;4887383;28;20035;-83
2023/08/10 00:05:25;;;;;;;14.93;2.50;;;14.00;99.90;;;12.99;96.71;101363.34;4897920;28;20062;-82
2023/08/10 00:07:53;;;;;;;18.75;2.97;;;14.00;99.90;;;12.96;97.12;101361.72;4897298;28;20078;-82
2023/08/10 00:10:19;;;;;;;18.27;2.33;;;14.00;99.90;;;12.95;96.97;101354.69;4898122;28;22084;-81
2023/08/10 00:12:45;;;;;;;21.85;3.08;;;14.00;99.90;;;12.96;96.75;101364.34;4911603;28;20164;-82
2023/08/10 00:15:11;;;;;;;19.98;3.67;;;14.00;99.90;;;12.93;96.59;101356.56;4920310;28;20099;-82
2023/08/10 00:17:44;;;;;;;11.82;2.20;;;14.00;99.90;;;12.89;96.72;101352.34;4900494;28;20036;-84
2023/08/10 00:20:11;;;;;;;13.18;2.10;;;13.90;99.90;;;12.90;96.38;101356.72;4915522;28;20031;-81
2023/08/10 00:22:38;;;;;;;17.98;3.47;;;13.90;99.90;;;12.88;96.35;101356.78;4883369;28;20122;-80
2023/08/10 00:25:15;;;;;;;12.73;2.63;;;13.90;99.90;;;12.87;96.32;101362.13;4902574;29;20103;-82
2023/08/10 00:27:40;;;;;;;19.70;3.08;;;13.90;99.90;;;12.86;96.16;101361.25;4925509;28;20039;-81
2023/08/10 00:30:13;;;;;;;20.75;2.80;;;13.90;99.90;;;12.84;96.21;101356.97;4870788;29;20071;-81
2023/08/10 00:32:39;;;;;;;22.23;3.42;;;13.80;99.90;;;12.81;96.14;101357.13;4872812;28;20559;-81
2023/08/10 00:35:06;;;;;;;14.70;2.72;;;13.80;99.90;;;12.78;95.84;101362.53;4876138;28;20127;-82
2023/08/10 00:37:31;;;;;;;18.77;2.58;;;13.80;99.90;;;12.77;96.20;101363.50;4886804;28;20042;-81
2023/08/10 00:39:57;;;;;;;20.92;3.00;;;13.80;99.90;;;12.76;95.26;101367.03;4905268;28;20637;-81
2023/08/10 00:42:25;;;;;;;13.00;3.22;;;13.80;99.90;;;12.74;95.05;101356.53;4893737;29;20032;-83
2023/08/10 00:44:57;;;;;;;16.85;2.80;;;13.70;99.90;;;12.71;95.19;101367.25;4869227;28;20400;-81
2023/08/10 00:47:25;;;;;;;17.55;2.65;;;13.70;99.90;;;12.70;94.85;101362.91;4887220;28;20566;-83
2023/08/10 00:50:17;;;;;;;12.70;2.35;;;13.70;99.90;;;12.68;94.75;101373.53;4863088;28;20051;-81
2023/08/10 00:52:44;;;;;;;15.63;2.90;;;13.70;99.90;;;12.64;94.46;101374.59;4906150;28;20059;-81
2023/08/10 00:55:10;;;;;;;15.82;2.28;;;13.70;99.90;;;12.64;94.77;101374.59;4898102;28;20034;-81
2023/08/10 00:57:41;;;;;;;18.38;2.60;;;13.70;99.90;;;12.65;94.42;101375.44;4908431;28;20041;-81
2023/08/10 01:00:10;;;;;;;18.60;2.78;;;13.70;99.90;;;12.64;94.16;101377.25;4914989;28;20037;-81
2023/08/10 01:02:38;;;;;;;13.48;2.72;;;13.70;99.90;;;12.63;94.60;101379.94;4878098;28;20035;-81
2023/08/10 01:05:12;;;;;;;22.80;3.08;;;13.70;99.90;;;12.62;94.50;101380.88;4882870;28;20031;-82
2023/08/10 01:08:09;;;;;;;17.38;2.67;;;13.60;99.90;;;12.57;94.40;101377.56;4889746;28;20047;-81
2023/08/10 01:10:56;;;;;;;27.55;3.42;;;13.60;99.90;;;12.55;94.96;101379.44;4909041;28;20044;-82
2023/08/10 01:14:03;;;;;;;17.90;2.80;;;13.50;99.90;;;12.52;94.70;101377.78;4882723;28;20029;-82
2023/08/10 01:16:38;;;;;;;12.00;2.40;;;13.50;99.90;;;12.48;94.66;101378.84;4911119;28;20403;-81
2023/08/10 01:19:17;;;;;;;26.75;3.17;;;13.50;99.90;;;12.45;95.12;101371.06;4875220;28;21354;-81
2023/08/10 01:21:59;;;;;;;24.38;3.30;;;13.50;99.90;;;12.43;95.04;101371.13;4904303;28;20065;-83
2023/08/10 01:24:34;;;;;;;16.75;2.33;;;13.50;99.90;;;12.43;95.40;101372.91;4929044;28;20116;-83
2023/08/10 01:27:02;;;;;;;18.20;3.20;;;13.50;99.90;;;12.42;95.45;101380.00;4884260;28;20554;-81
2023/08/10 01:29:29;;;;;;;20.05;3.72;;;;;;;12.42;95.67;101387.03;4909431;28;20056;-82
2023/08/10 01:31:55;;;;;;;26.52;3.30;;;13.50;99.90;;;12.42;95.79;101393.19;4940998;28;20070;-82
2023/08/10 01:34:21;;;;;;;13.73;2.42;;;13.50;99.90;;;12.42;96.00;101395.84;4906390;28;20039;-80
2023/08/10 01:36:46;;;;;;;22.25;2.70;;;13.50;99.90;;;12.42;95.77;101394.94;4886700;28;20085;-82
2023/08/10 01:39:17;;;;;;;20.40;2.85;;;13.50;99.90;;;12.41;96.17;101394.09;4911500;28;20059;-82
2023/08/10 01:41:43;;;;;;;18.05;2.45;;;13.40;99.90;;;12.41;95.79;101394.09;4883825;28;20039;-82
2023/08/10 01:44:09;;;;;;;22.90;2.50;;;13.50;99.90;;;12.38;96.18;101388.13;4872835;28;20516;-82
2023/08/10 01:46:41;;;;;;;22.98;3.00;;;13.40;99.90;;;12.35;95.79;101386.44;4866467;28;20040;-81
2023/08/10 01:49:11;;;;;;;22.98;3.83;;;13.40;99.90;;;12.32;96.25;101390.06;4906065;28;20062;-82
2023/08/10 01:51:41;;;;;;;21.10;3.00;;;13.40;99.90;;;12.31;96.32;101395.44;4898559;28;20097;-81
2023/08/10 01:54:17;;;;;;;15.43;2.80;;;13.30;99.90;;;12.30;96.17;101386.66;4885598;28;20039;-81
2023/08/10 01:56:43;;;;;;;17.52;2.58;;;13.30;99.90;;;12.29;96.05;101389.38;4911257;28;20033;-82
2023/08/10 01:59:09;;;;;;;18.00;2.38;;;13.30;99.90;;;12.28;96.26;101388.50;4888821;28;20062;-81
2023/08/10 02:01:43;;;;;;;21.55;3.15;;;13.30;99.90;;;12.29;96.87;101387.59;4877730;28;20451;-82
2023/08/10 02:04:09;;;;;;;20.20;2.80;;;13.30;99.90;;;12.31;96.83;101390.16;4901249;28;20047;-81
2023/08/10 02:06:39;;;;;;;18.10;2.90;;;13.30;99.90;;;12.32;96.50;101391.88;4893380;28;20122;-82
2023/08/10 02:09:13;;;;;;;20.67;2.60;;;13.30;99.90;;;12.30;96.32;101389.28;4884944;28;20039;-82
2023/08/10 02:11:39;;;;;;;17.25;3.22;;;13.40;99.90;;;12.29;96.76;101382.31;4898930;28;20066;-80
2023/08/10 02:14:05;;;;;;;24.45;3.00;;;13.30;99.90;;;12.31;96.52;101384.88;4868280;28;20040;-82
2023/08/10 02:16:38;;;;;;;20.35;3.00;;;13.30;99.90;;;12.31;96.56;101391.03;4934255;28;20055;-81
2023/08/10 02:19:07;;;;;;;19.25;3.17;;;13.40;99.90;;;12.31;96.24;101395.44;4908844;28;20038;-81
2023/08/10 02:21:33;;;;;;;22.05;3.78;;;13.30;99.90;;;12.31;96.32;101406.00;4929060;28;20039;-83
2023/08/10 02:24:06;;;;;;;23.33;3.25;;;13.40;99.90;;;12.29;96.32;101397.28;4890962;28;20126;-81
2023/08/10 02:26:32;;;;;;;16.25;3.00;;;13.30;99.90;;;12.30;96.12;101402.50;4901823;28;20034;-82
2023/08/10 02:28:58;;;;;;;19.00;3.05;;;13.30;99.90;;;12.28;96.26;101387.66;4889824;28;20041;-81
2023/08/10 02:31:24;;;;;;;27.67;3.97;;;13.30;99.90;;;12.27;95.92;101383.31;4886348;28;20127;-82
2023/08/10 02:33:49;;;;;;;21.38;3.13;;;13.30;99.90;;;12.26;95.87;101395.63;4901023;28;20046;-80
2023/08/10 02:36:21;;;;;;;24.63;3.35;;;13.30;99.90;;;12.25;95.90;101395.72;4907492;28;20433;-81
2023/08/10 02:38:47;;;;;;;20.77;3.22;;;13.30;99.90;;;12.24;95.91;101396.63;4912927;28;20083;-81
2023/08/10 02:41:13;;;;;;;19.45;2.55;;;13.30;99.90;;;12.24;95.94;101402.75;4905641;28;20129;-82
2023/08/10 02:43:39;;;;;;;16.67;3.03;;;13.30;99.90;;;12.23;95.96;101403.69;4899059;28;20051;-81
2023/08/10 02:46:05;;;;;;;23.10;3.28;;;13.30;99.90;;;12.23;95.89;101411.59;4915873;28;20088;-83
2023/08/10 02:48:30;;;;;;;18.20;3.20;;;13.30;99.90;;;12.20;95.67;101419.66;4900731;29;20122;-80
2023/08/10 02:51:04;;;;;;;24.63;3.53;;;13.20;99.90;;;12.20;95.88;101410.88;4892633;28;20122;-81
2023/08/10 02:53:30;;;;;;;23.02;2.78;;;13.30;99.90;;;12.18;95.79;101407.44;4890389;28;20050;-80
2023/08/10 02:55:56;;;;;;;25.95;3.75;;;13.30;99.90;;;12.16;96.00;101418.09;4909858;28;20062;-81
2023/08/10 02:58:29;;;;;;;19.67;2.92;;;13.20;99.90;;;12.15;96.10;101410.22;4917566;28;20035;-83
2023/08/10 03:00:55;;;;;;;18.42;2.67;;;13.20;99.90;;;12.10;96.02;101410.41;4883345;28;20106;-82
2023/08/10 03:03:23;;;;;;;20.88;2.85;;;13.20;99.90;;;12.08;96.56;101409.63;4900410;28;20406;-80
2023/08/10 03:05:48;;;;;;;17.83;3.03;;;13.20;99.90;;;12.04;96.68;101408.03;4877584;28;20043;-81
2023/08/10 03:08:21;;;;;;;21.00;2.83;;;13.10;99.90;;;12.02;96.28;101399.31;4895909;28;20072;-83
2023/08/10 03:10:47;;;;;;;17.58;3.15;;;13.10;99.90;;;11.95;96.70;101403.13;4881508;28;20106;-81
2023/08/10 03:13:13;;;;;;;17.77;2.53;;;13.10;99.90;;;11.87;96.37;101403.41;4879905;28;20052;-83
2023/08/10 03:15:39;;;;;;;11.60;2.08;;;13.00;99.90;;;11.80;97.00;101407.22;4894070;28;20167;-81
2023/08/10 03:18:05;;;;;;;12.90;2.65;;;12.90;99.90;;;11.77;96.74;101404.69;4923810;28;20054;-83
2023/08/10 03:20:31;;;;;;;18.92;3.63;;;12.90;99.90;;;11.75;97.27;101415.34;4899831;28;20030;-82
2023/08/10 03:23:04;;;;;;;15.88;2.85;;;12.80;99.90;;;11.74;98.37;101410.13;4913682;28;20061;-81
2023/08/10 03:25:29;;;;;;;20.85;3.22;;;12.90;99.90;;;11.74;97.65;101410.13;4892855;28;20028;-81
2023/08/10 03:27:55;;;;;;;14.18;2.58;;;12.80;99.90;;;11.75;98.29;101427.66;4880363;28;20424;-81
2023/08/10 03:30:21;;;;;;;23.52;2.92;;;12.80;99.90;;;11.70;98.65;101435.75;4889434;28;20043;-80
2023/08/10 03:32:52;;;;;;;19.70;2.65;;;12.80;99.90;;;11.66;98.15;101439.44;4896360;23;20051;-81
2023/08/10 03:35:18;;;;;;;31.15;3.17;;;12.80;99.90;;;11.68;98.65;101429.69;4869063;29;20040;-81
2023/08/10 03:37:46;;;;;;;13.93;2.33;;;12.80;99.90;;;11.72;98.21;101439.19;4889307;29;20160;-82
2023/08/10 03:40:11;;;;;;;17.58;2.58;;;12.80;99.90;;;11.73;98.97;101438.28;4883302;28;20104;-82
2023/08/10 03:42:37;;;;;;;17.92;3.17;;;12.80;99.90;;;11.73;98.64;101427.72;4897752;29;20527;-81
2023/08/10 03:45:11;;;;;;;23.10;2.83;;;12.80;99.90;;;11.74;99.03;101426.78;4906382;29;20111;-82
2023/08/10 03:47:37;;;;;;;19.00;3.10;;;12.80;99.90;;;11.79;98.78;101440.69;4862492;29;21064;-82
2023/08/10 03:50:03;;;;;;;18.38;2.88;;;12.90;99.90;;;11.82;98.68;101435.28;4878470;29;20609;-81
2023/08/10 03:52:29;;;;;;;17.13;2.95;;;12.90;99.90;;;11.85;98.81;101440.41;4858998;29;20047;-82
2023/08/10 03:54:54;;;;;;;14.30;2.75;;;12.90;99.90;;;11.86;98.62;101449.22;4887932;29;20648;-82
2023/08/10 03:57:25;;;;;;;22.80;3.22;;;12.90;99.90;;;11.86;98.87;101442.13;4873386;29;20044;-81
2023/08/10 03:59:53;;;;;;;15.02;2.55;;;12.90;99.90;;;11.86;98.93;101447.41;4873740;29;20459;-81
2023/08/10 04:02:19;;;;;;;22.85;2.72;;;12.90;99.90;;;11.88;99.07;101439.47;4883686;29;20043;-81
2023/08/10 04:04:45;;;;;;;19.60;3.60;;;13.00;99.90;;;11.90;99.21;101451.69;4870411;29;20053;-82
2023/08/10 04:07:33;;;;;;;18.58;2.88;;;13.00;99.90;;;11.92;99.32;101443.69;4875726;29;20047;-80
2023/08/10 04:09:57;;;;;;;21.10;2.75;;;12.90;99.90;;;11.93;99.05;101452.50;4864598;28;20032;-80
2023/08/10 04:12:23;;;;;;;15.88;2.80;;;13.00;99.90;;;11.95;99.25;101448.84;4873913;29;20081;-81
2023/08/10 04:14:49;;;;;;;22.25;3.10;;;13.00;99.90;;;11.97;99.24;101460.22;4869862;29;20041;-81
2023/08/10 04:17:18;;;;;;;21.42;2.80;;;13.10;99.90;;;12.03;98.26;101464.38;4883944;29;20066;-82
2023/08/10 04:19:49;;;;;;;17.50;2.80;;;13.10;99.90;;;12.04;98.67;101466.09;4879311;29;20526;-81
2023/08/10 04:22:15;;;;;;;12.38;2.80;;;;;;;12.07;98.55;101453.66;4857480;29;20051;-81
2023/08/10 04:24:41;;;;;;;17.90;3.10;;;13.10;99.90;;;12.12;98.26;101453.44;4883869;28;20036;-82
2023/08/10 04:27:07;;;;;;;26.38;3.08;;;13.10;99.90;;;12.15;98.23;101455.94;4870930;29;20059;-81
2023/08/10 04:29:33;;;;;;;17.63;2.85;;;13.20;99.90;;;12.20;97.64;101455.75;4861719;29;20046;-81
2023/08/10 04:31:58;;;;;;;17.95;2.67;;;13.20;99.90;;;12.25;97.97;101461.72;4862657;29;20130;-80
2023/08/10 04:34:32;;;;;;;18.98;3.00;;;13.20;99.90;;;12.26;97.49;101466.06;4857707;29;20115;-82
2023/08/10 04:36:58;;;;;;;17.10;2.92;;;;;;;12.29;97.74;101471.22;4876988;29;20036;-81
2023/08/10 04:39:24;;;;;;;15.55;2.67;;;13.30;99.90;;;12.34;97.47;101465.75;4908907;29;20527;-81
2023/08/10 04:41:49;;;;;;;15.43;2.72;;;13.30;99.90;;;12.39;97.30;101467.25;4822513;29;20044;-80
2023/08/10 04:44:27;;;;;;;20.20;2.67;;;13.40;99.90;;;12.45;97.18;101472.28;4857425;29;20511;-81
2023/08/10 04:46:53;;;;;;;17.88;3.10;;;13.50;99.90;;;12.49;96.24;101465.94;4875695;29;20123;-82
2023/08/10 04:49:19;;;;;;;22.63;2.78;;;13.50;99.90;;;12.55;96.46;101469.25;4854700;29;20039;-81
2023/08/10 04:51:49;;;;;;;14.85;2.80;;;13.60;99.90;;;12.62;95.96;101470.72;4870142;29;20108;-81
2023/08/10 04:54:15;;;;;;;21.75;3.92;;;13.60;99.90;;;12.71;95.75;101475.59;4866817;29;20044;-81
2023/08/10 04:56:41;;;;;;;14.25;2.55;;;13.70;99.90;;;12.78;95.49;101474.38;4830183;29;20079;-81
2023/08/10 04:59:07;;;;;;;17.08;2.33;;;;;;;12.85;94.97;101477.63;4852488;29;20135;-81
2023/08/10 05:01:40;;;;;;;15.02;2.60;;;13.80;99.90;;;12.90;94.93;101473.84;4896198;28;20111;-83
2023/08/10 05:04:06;;;;;;;17.48;3.08;;;13.80;99.90;;;12.92;94.15;101473.78;4880865;29;20587;-82
2023/08/10 05:06:34;;;;;;;25.65;3.03;;;13.90;99.90;;;13.00;94.39;101484.91;4880098;29;20055;-81
2023/08/10 05:09:09;;;;;;;15.10;3.03;;;13.90;99.90;;;13.05;94.13;101474.97;4863244;29;20040;-80
2023/08/10 05:11:35;;;;;;;19.13;2.93;;;14.00;99.90;;;13.09;93.40;101467.75;4887372;29;20655;-82
2023/08/10 05:14:01;;;;;;;18.20;2.83;;;14.00;99.90;;;13.12;93.02;101467.59;4861782;29;20040;-80
2023/08/10 05:16:26;;;;;;;13.55;2.50;;;14.10;99.90;;;13.16;92.74;101474.47;4851887;29;20462;-81
2023/08/10 05:18:52;;;;;;;19.27;2.72;;;14.10;99.90;;;13.21;92.53;101483.03;4869006;29;20066;-82
2023/08/10 05:21:18;;;;;;;22.35;2.90;;;14.20;99.90;;;13.33;92.32;101487.81;4870883;29;20067;-81
2023/08/10 05:23:49;;;;;;;15.80;2.47;;;14.30;99.90;;;13.48;91.45;101493.34;4875672;29;20046;-83
2023/08/10 05:26:16;;;;;;;18.48;2.97;;;14.40;99.90;;;13.68;90.86;101495.88;4853878;29;20103;-82
2023/08/10 05:28:42;;;;;;;19.88;2.88;;;14.60;99.90;;;13.88;90.03;101500.22;4862666;29;20130;-81
2023/08/10 05:31:08;;;;;;;14.75;3.20;;;14.70;99.90;;;14.08;88.18;101499.28;4905053;29;20040;-80
2023/08/10 05:33:34;;;;;;;11.77;2.53;;;14.90;99.90;;;14.26;87.11;101504.59;4899494;23;20760;-82
2023/08/10 05:36:09;;;;;;;23.20;2.85;;;15.00;99.90;;;14.40;86.44;101495.94;4872714;29;20107;-81
2023/08/10 05:38:34;;;;;;;14.55;2.42;;;15.20;99.90;;;14.56;85.43;101504.88;4892768;28;20044;-83
2023/08/10 05:41:01;;;;;;;12.20;2.03;;;15.40;99.90;;;14.73;83.94;101506.69;4863832;29;20074;-81
2023/08/10 05:43:36;;;;;;;20.02;3.08;;;15.50;99.90;;;14.90;83.13;101514.59;4854645;29;20046;-81
2023/08/10 05:46:02;;;;;;;13.90;3.00;;;;;;;15.08;81.72;101510.13;4856225;29;20056;-80
2023/08/10 05:48:28;;;;;;;16.95;2.67;;;;;;;15.33;80.53;101509.69;4880739;29;20047;-81
2023/08/10 05:50:54;;;;;;;16.23;2.40;;;16.00;99.90;;;15.54;78.95;101517.41;4885232;28;20036;-82
2023/08/10 05:53:28;;;;;;;12.60;3.25;;;16.20;99.90;;;15.75;77.82;101512.75;4865858;29;20063;-81
2023/08/10 05:55:54;;;;;;;13.48;2.58;;;16.30;99.90;;;16.03;77.09;101527.97;4859037;29;20044;-82
2023/08/10 05:58:20;;;;;;;22.75;2.80;;;16.60;99.90;;;16.19;76.15;101531.44;4827267;29;20769;-81
2023/08/10 06:00:46;;;;;;;13.35;2.95;;;16.70;99.90;;;16.29;75.19;101531.78;4834213;29;22365;-82
2023/08/10 06:03:36;;;;;;;13.05;1.88;;;16.80;99.90;;;16.27;74.85;101527.50;4815788;29;20041;-82
2023/08/10 06:06:06;;;;;;;14.95;2.40;;;16.90;99.90;;;16.31;74.21;101529.06;4827658;29;20092;-83
2023/08/10 06:08:37;;;;;;;16.92;2.42;;;17.00;99.90;;;16.41;74.79;101527.53;4884092;29;20038;-82
2023/08/10 06:11:05;;;;;;;15.88;3.22;;;17.10;99.90;;;16.49;73.99;101533.28;4887135;29;20032;-82
2023/08/10 06:13:32;;;;;;;15.90;2.47;;;17.10;99.90;;;16.55;73.44;101542.72;4875910;29;20460;-82
2023/08/10 06:15:58;;;;;;;13.13;2.47;;;17.20;99.90;;;16.58;72.58;101539.84;4847242;29;20044;-82
2023/08/10 06:18:28;;;;;;;22.17;3.45;;;17.30;99.90;;;16.67;73.00;101543.78;4868501;29;20048;-81
2023/08/10 06:20:56;;;;;;;18.58;2.95;;;17.30;99.90;;;16.79;73.28;101541.25;4865129;29;20111;-81
2023/08/10 06:23:22;;;;;;;13.32;2.33;;;17.40;99.90;;;16.93;72.39;101537.81;4848163;29;20163;-82
2023/08/10 06:25:48;;;;;;;19.10;2.78;;;17.60;99.90;;;17.17;72.20;101543.44;4875448;28;20032;-81
2023/08/10 06:28:14;;;;;;;14.70;2.53;;;17.70;99.90;;;17.36;70.78;101539.63;4875648;29;20137;-82
2023/08/10 06:30:46;;;;;;;18.23;3.15;;;17.90;99.90;;;17.47;69.92;101549.59;4861249;29;20068;-82
2023/08/10 06:33:12;;;;;;;12.15;2.35;;;18.00;99.90;;;17.70;69.63;101551.66;4871929;29;20028;-81
2023/08/10 06:35:39;;;;;;;18.88;2.92;;;18.20;99.90;;;17.89;68.67;101555.88;4834825;29;20041;-82
2023/08/10 06:38:05;;;;;;;21.38;3.00;;;18.30;99.90;;;17.96;68.64;101554.50;4877530;29;20100;-81
2023/08/10 06:40:40;;;;;;;21.13;2.97;;;18.30;99.90;;;17.72;68.57;101548.91;4856153;29;20412;-80
2023/08/10 06:43:06;;;;;;;18.20;2.90;;;18.30;99.90;;;17.50;69.11;101549.41;4856588;29;20038;-82
2023/08/10 06:45:32;;;;;;;17.75;2.75;;;18.10;99.90;;;17.24;69.61;101556.38;4890035;29;20104;-81
2023/08/10 06:47:58;;;;;;;21.58;3.38;;;17.90;99.90;;;16.99;70.13;101547.19;4865187;29;20389;-82
2023/08/10 06:50:34;;;;;;;17.73;2.55;;;17.80;99.90;;;16.87;71.03;101548.81;4867332;29;20075;-81
2023/08/10 06:53:00;;;;;;;17.23;2.80;;;17.70;99.90;;;16.84;71.16;101553.44;4897939;29;20593;-80
2023/08/10 06:55:27;;;;;;;18.58;2.47;;;17.60;99.90;;;16.90;71.47;101569.03;4866229;29;20051;-83
2023/08/10 06:57:59;;;;;;;15.13;2.45;;;17.70;99.90;;;16.99;71.55;101565.81;4842751;29;20069;-81
2023/08/10 07:00:28;;;;;;;14.63;2.65;;;17.70;99.90;;;17.15;71.64;101573.75;4864070;29;20036;-82
2023/08/10 07:02:54;;;;;;;14.65;2.20;;;17.90;99.90;;;17.31;70.81;101574.50;4879341;29;20040;-83
2023/08/10 07:05:26;;;;;;;15.95;2.63;;;18.00;99.90;;;17.42;69.84;101582.69;4862801;28;20469;-81
2023/08/10 07:07:52;;;;;;;16.33;2.58;;;18.10;99.90;;;17.52;68.83;101576.81;4864000;29;20064;-81
2023/08/10 07:10:18;;;;;;;12.00;2.20;;;18.10;99.90;;;17.60;69.44;101588.69;4879851;29;20044;-82
2023/08/10 07:12:46;;;;;;;11.13;1.95;;;18.20;99.90;;;17.72;68.94;101588.88;4874614;28;20050;-80
2023/08/10 07:15:19;;;;;;;16.42;2.92;;;18.30;99.90;;;17.78;68.57;101592.00;4842405;29;20043;-82
2023/08/10 07:17:46;;;;;;;11.05;2.45;;;18.40;99.90;;;17.90;67.88;101584.19;4867296;29;20058;-82
2023/08/10 07:20:13;;;;;;;12.57;2.17;;;18.50;99.90;;;18.07;67.92;101596.44;4848179;29;20039;-81
2023/08/10 07:22:46;;;;;;;16.40;2.72;;;18.60;99.90;;;18.10;67.21;101588.25;4853292;29;20063;-80
2023/08/10 07:25:12;;;;;;;11.75;2.20;;;18.70;99.90;;;18.11;66.51;101603.28;4800232;29;20052;-81
2023/08/10 07:27:38;;;;;;;10.80;2.40;;;18.70;99.90;;;18.12;67.17;101597.00;4833403;29;20501;-82
2023/08/10 07:30:05;;;;;;;12.75;2.40;;;18.70;99.90;;;18.01;66.71;101603.00;4847528;29;20081;-83
2023/08/10 07:32:36;;;;;;;12.75;2.42;;;18.60;99.90;;;17.92;66.79;101601.78;4828104;29;20075;-80
2023/08/10 07:35:03;;;;;;;14.45;2.25;;;18.60;99.90;;;17.84;67.09;101601.44;4839330;29;20040;-81
2023/08/10 07:37:32;;;;;;;17.60;2.30;;;18.60;99.90;;;17.87;67.54;101603.91;4858748;29;20774;-83
2023/08/10 07:39:58;;;;;;;12.05;2.22;;;18.70;99.90;;;18.31;67.30;101613.50;4875313;29;20508;-81
2023/08/10 07:42:33;;;;;;;12.32;2.25;;;19.00;99.90;;;18.82;66.22;101626.22;4856020;29;20040;-82
2023/08/10 07:44:59;;;;;;;15.60;2.75;;;19.30;99.90;;;19.24;65.30;101640.25;4883696;29;20031;-81
2023/08/10 07:47:34;;;;;;;14.57;2.13;;;19.70;99.90;;;19.50;63.39;101641.13;4878117;29;20092;-82
2023/08/10 07:50:00;;;;;;;8.30;2.03;;;19.90;99.90;;;19.60;63.33;101647.53;4889280;29;20120;-80
2023/08/10 07:52:26;;;;;;;14.27;2.30;;;20.00;99.90;;;19.62;62.84;101640.25;4875972;29;20145;-82
2023/08/10 07:54:52;;;;;;;11.05;2.28;;;;;;;19.58;63.04;101645.94;4862826;28;20559;-82
2023/08/10 07:57:18;;;;;;;9.30;1.92;;;20.10;99.90;;;19.66;62.68;101651.59;4861049;29;20085;-82
2023/08/10 07:59:51;;;;;;;10.50;2.00;;;20.20;99.90;;;19.80;62.25;101656.84;4869522;29;20178;-83
2023/08/10 08:02:17;;;;;;;11.95;2.22;;;;;;;19.78;61.41;101661.44;4845740;29;20047;-82
2023/08/10 08:04:43;;;;;;;6.93;1.95;;;20.30;99.90;;;19.84;61.30;101655.66;4881148;29;20046;-83
2023/08/10 08:07:09;;;;;;;9.43;1.83;;;;;;;19.87;61.82;101660.81;4825345;29;20045;-82
2023/08/10 08:09:40;;;;;;;12.70;2.20;;;20.40;99.90;;;19.94;62.02;101661.22;4842785;29;20095;-83
2023/08/10 08:12:06;;;;;;;8.60;1.80;;;;;;;20.22;61.16;101665.44;4861755;29;20032;-84
2023/08/10 08:14:32;;;;;;;6.75;1.33;;;20.60;99.90;;;20.19;60.08;101664.78;4878798;29;20123;-81
2023/08/10 08:16:58;;;;;;;11.25;2.00;;;20.70;99.90;;;20.27;60.24;101671.28;4872295;29;20036;-82
2023/08/10 08:19:24;;;;;;;14.25;2.20;;;20.70;99.90;;;20.22;59.89;101677.94;4857556;29;20539;-82
2023/08/10 08:21:50;;;;;;;8.60;1.48;;;;;;;20.04;59.97;101666.75;4822538;29;20774;-81
2023/08/10 08:24:22;;;;;;;14.38;2.25;;;20.60;99.90;;;19.97;60.09;101669.00;4874894;28;20056;-85
2023/08/10 08:26:48;;;;;;;13.95;2.53;;;;;;;19.89;60.06;101666.00;4854017;29;20040;-81
2023/08/10 08:29:16;;;;;;;12.50;2.17;;;20.50;99.90;;;19.91;60.11;101660.56;4865788;29;20045;-83
2023/08/10 08:31:42;;;;;;;11.00;1.80;;;20.50;99.90;;;19.93;59.62;101653.28;4882981;28;20051;-82
2023/08/10 08:34:19;;;;;;;9.15;1.90;;;;;;;19.97;59.08;101669.00;4876335;29;20222;-86
2023/08/10 08:36:47;;;;;;;9.45;2.17;;;20.50;99.90;;;20.22;57.91;101677.94;4815431;29;20037;-86
2023/08/10 08:39:30;;;;;;;9.45;1.85;;;20.80;99.90;;;20.68;56.66;101678.13;4795129;29;20042;-86
2023/08/10 08:42:41;;;;;;;8.35;1.63;;;21.20;99.90;;;21.10;54.95;101689.25;4870231;29;20040;-86
2023/08/10 08:45:30;;;;;;;7.05;1.48;;;;;;;21.28;53.95;101697.72;4851555;29;20097;-86
2023/08/10 08:47:59;;;;;;;5.10;1.05;;;21.60;99.90;;;21.41;53.88;101700.34;4850675;29;20040;-87
2023/08/10 08:54:07;;;;;;;5.35;1.02;;;;;;;21.76;50.43;101723.53;4742241;29;20694;-86
2023/08/10 08:59:52;;;;;;;;;;;;;;;;;;;;;
2023/08/10 09:02:41;;;;;;;8.85;1.35;;;;;;;21.60;52.21;101729.25;4831010;23;20662;-89
2023/08/10 09:05:48;;;;;;;8.20;1.88;;;22.10;99.90;;;21.75;50.60;101732.56;4970346;28;20125;-87
2023/08/10 09:22:07;;;;;;;8.48;1.73;;;23.60;99.50;;;23.36;48.42;101763.44;4936348;28;20105;-86
2023/08/10 09:25:00;;;;;;;7.60;2.08;;;;;;;23.52;48.76;101764.72;4900802;28;20596;-85
2023/08/10 09:27:40;;;;;;;6.72;1.27;;;;;;;23.65;49.17;101755.56;4878298;28;20063;-86
2023/08/10 09:30:09;;;;;;;9.82;1.83;;;23.90;98.80;;;23.55;49.08;101768.97;4884968;29;20173;-86
2023/08/10 09:32:50;;;;;;;11.07;2.28;;;23.80;99.50;;;23.30;49.47;101759.44;4997612;23;20450;-86
2023/08/10 09:35:46;;;;;;;8.55;1.70;;;;;;;22.99;50.45;101751.22;4876107;29;20041;-85
2023/08/10 09:38:41;;;;;;;8.57;2.00;;;;;;;22.81;50.76;101745.56;4897375;28;20044;-86
2023/08/10 09:41:21;;;;;;;12.50;2.13;;;23.30;99.90;;;22.71;50.93;101748.13;4845877;29;20194;-85
2023/08/10 09:44:21;;;;;;;11.63;2.33;;;23.20;99.90;;;22.51;51.39;101743.56;4860392;29;20044;-86
2023/08/10 09:47:40;;;;;;;12.52;2.45;;;;;;;21.81;51.57;101741.94;4906636;29;21662;-86
2023/08/10 09:50:21;;;;;;;10.32;2.10;;;22.30;99.90;;;21.14;53.16;101732.72;4893024;28;20121;-87
2023/08/10 09:52:49;;;;;;;12.05;2.10;;;;;;;20.58;54.11;101724.41;5005315;23;20047;-85
2023/08/10 09:55:30;;;;;;;8.90;1.80;;;;;;;20.15;54.94;101712.31;4935172;28;20035;-87
2023/08/10 09:58:20;;;;;;;13.60;2.60;;;20.90;99.90;;;19.47;56.91;101716.13;4914653;28;20031;-87
2023/08/10 10:04:01;;;;;;;13.18;2.17;;;;;;;18.70;60.38;101715.03;4978525;23;20067;-86
2023/08/10 10:07:16;;;;;;;10.57;2.45;;;19.60;99.90;;;18.56;61.84;101703.44;4929606;28;20066;-86
2023/08/10 10:13:33;;;;;;;15.90;2.20;;;;;;;18.53;62.82;101692.97;4861428;29;20498;-86
2023/08/10 10:16:19;;;;;;;13.75;1.77;;;;;;;18.58;62.30;101696.19;4833550;29;20037;-87
2023/08/10 10:22:39;;;;;;;13.02;1.77;;;19.30;99.90;;;18.61;60.70;101701.31;4904389;23;20141;-88
2023/08/10 10:25:33;;;;;;;;;;;;;;;;;;;;;
2023/08/10 10:31:30;;;;;;;12.65;2.35;;;;;;;18.53;61.06;101697.44;4883003;29;20177;-86
2023/08/10 10:34:39;;;;;;;13.80;2.53;;;;;;;18.65;61.09;101699.31;4854440;29;20041;-86
2023/08/10 10:37:34;;;;;;;12.05;1.95;;;19.50;99.90;;;18.80;59.35;101695.66;4841743;29;20061;-85
2023/08/10 10:40:45;;;;;;;;;;;;;;;;;;;;;
2023/08/10 10:47:59;;;;;;;9.23;1.80;;;19.60;99.90;;;18.62;59.49;101695.03;4795463;29;20047;-86
2023/08/10 10:50:40;;;;;;;7.03;1.40;;;19.30;99.90;;;18.31;60.67;101684.63;4641678;30;20078;-87
2023/08/10 10:56:50;;;;;;;11.70;2.10;;;;;;;18.22;61.54;101686.94;4802933;29;20042;-86
2023/08/10 11:00:29;;;;;;;15.43;2.33;;;19.00;99.90;;;18.15;62.03;101682.94;4797526;29;20073;-87
2023/08/10 11:03:24;;;;;;;;;;;;;;;;;;;;;
2023/08/10 11:06:20;;;;;;;109.63;9.95;;;;;;;18.68;61.47;101693.78;4911938;28;20704;-86
2023/08/10 11:09:16;;;;;;;33.28;4.60;;;19.50;99.90;;;19.09;61.11;101700.03;4865390;29;20116;-87
2023/08/10 11:12:00;;;;;;;19.95;2.60;;;;;;;19.70;59.68;101698.56;4854847;29;20027;-86
2023/08/10 11:15:12;;;;;;;74.82;7.47;;;;;;;20.16;58.73;101705.13;4831566;29;20055;-86
2023/08/10 11:18:19;;;;;;;16.65;2.40;;;20.70;99.90;;;20.37;57.72;101710.75;4781643;29;20244;-87
2023/08/10 11:20:51;;;;;;;19.47;2.23;;;20.90;99.90;;;20.33;55.54;101719.97;4682120;29;20052;-87
2023/08/10 11:24:03;;;;;;;30.42;4.20;;;;;;;20.11;55.52;101720.63;4728154;29;20090;-86